createdAt,value
2018-08-13T00:01:17.232Z,18.40
2018-08-13T00:03:45.527Z,18.30
2018-08-13T00:06:13.853Z,18.30
2018-08-13T00:08:42.173Z,18.20
2018-08-13T00:11:10.528Z,18.20
2018-08-13T00:13:39.006Z,18.10
2018-08-13T00:16:07.492Z,18.10
2018-08-13T00:18:35.794Z,18.00
2018-08-13T00:21:04.104Z,18.00
2018-08-13T00:23:32.398Z,17.90
2018-08-13T00:26:00.732Z,17.80
2018-08-13T00:28:29.036Z,17.80
2018-08-13T00:30:57.412Z,17.70
2018-08-13T00:33:25.728Z,17.70
2018-08-13T00:35:54.048Z,17.60
2018-08-13T00:38:22.352Z,17.50
2018-08-13T00:40:50.687Z,17.50
2018-08-13T00:43:18.973Z,17.50
2018-08-13T00:45:47.304Z,17.40
2018-08-13T00:48:15.599Z,17.40
2018-08-13T00:50:43.929Z,17.40
2018-08-13T00:53:12.241Z,17.30
2018-08-13T00:55:40.637Z,17.30
2018-08-13T00:58:08.955Z,17.20
2018-08-13T01:00:37.319Z,17.20
2018-08-13T01:03:06.752Z,17.20
2018-08-13T01:05:35.066Z,17.10
2018-08-13T01:08:03.428Z,17.10
2018-08-13T01:10:31.764Z,17.00
2018-08-13T01:13:00.073Z,17.00
2018-08-13T01:15:28.460Z,17.00
2018-08-13T01:17:56.764Z,17.00
2018-08-13T01:20:25.144Z,16.90
2018-08-13T01:22:53.475Z,16.90
2018-08-13T01:25:22.152Z,16.90
2018-08-13T01:27:50.476Z,16.80
2018-08-13T01:30:19.507Z,16.80
2018-08-13T01:32:47.811Z,16.80
2018-08-13T01:35:16.216Z,16.70
2018-08-13T01:37:44.541Z,16.70
2018-08-13T01:40:13.339Z,16.70
2018-08-13T01:42:41.632Z,16.60
2018-08-13T01:45:12.103Z,16.60
2018-08-13T01:47:40.692Z,16.50
2018-08-13T01:50:10.469Z,16.50
2018-08-13T01:52:38.828Z,16.50
2018-08-13T01:55:08.254Z,16.50
2018-08-13T01:57:36.627Z,16.50
2018-08-13T02:00:07.928Z,16.40
2018-08-13T02:02:36.262Z,16.40
2018-08-13T02:05:05.340Z,16.30
2018-08-13T02:07:33.691Z,16.30
2018-08-13T02:10:02.004Z,16.30
2018-08-13T02:12:30.324Z,16.30
2018-08-13T02:14:58.653Z,16.20
2018-08-13T02:17:26.992Z,16.20
2018-08-13T02:19:55.327Z,16.20
2018-08-13T02:22:23.675Z,16.10
2018-08-13T02:24:52.023Z,16.10
2018-08-13T02:27:20.364Z,16.10
2018-08-13T02:29:48.688Z,16.10
2018-08-13T02:32:17.026Z,16.00
2018-08-13T02:34:45.335Z,16.00
2018-08-13T02:37:13.684Z,15.90
2018-08-13T02:39:41.981Z,15.90
2018-08-13T02:42:10.344Z,15.90
2018-08-13T02:44:38.677Z,15.80
2018-08-13T02:47:07.028Z,15.80
2018-08-13T02:49:35.360Z,15.70
2018-08-13T02:52:03.784Z,15.70
2018-08-13T02:54:32.128Z,15.70
2018-08-13T02:57:00.473Z,15.70
2018-08-13T02:59:28.789Z,15.60
2018-08-13T03:01:57.124Z,15.60
2018-08-13T03:04:25.454Z,15.60
2018-08-13T03:06:53.823Z,15.50
2018-08-13T03:09:22.209Z,15.50
2018-08-13T03:11:50.526Z,15.50
2018-08-13T03:14:18.830Z,15.50
2018-08-13T03:16:47.164Z,15.50
2018-08-13T03:19:15.491Z,15.40
2018-08-13T03:21:43.840Z,15.40
2018-08-13T03:24:12.134Z,15.40
2018-08-13T03:26:40.476Z,15.40
2018-08-13T03:29:08.778Z,15.40
2018-08-13T03:31:37.119Z,15.30
2018-08-13T03:34:05.445Z,15.30
2018-08-13T03:36:33.777Z,15.30
2018-08-13T03:39:02.081Z,15.20
2018-08-13T03:41:30.431Z,15.20
2018-08-13T03:43:58.751Z,15.20
2018-08-13T03:46:27.081Z,15.20
2018-08-13T03:48:55.547Z,15.20
2018-08-13T03:51:23.901Z,15.10
2018-08-13T03:53:52.331Z,15.10
2018-08-13T03:56:20.617Z,15.10
2018-08-13T03:58:48.949Z,15.10
2018-08-13T04:01:17.284Z,15.10
2018-08-13T04:03:45.605Z,15.10
2018-08-13T04:06:13.912Z,15.10
2018-08-13T04:08:42.225Z,15.10
2018-08-13T04:11:10.831Z,15.10
2018-08-13T04:13:39.197Z,15.10
2018-08-13T04:16:07.527Z,15.00
2018-08-13T04:18:35.877Z,15.00
2018-08-13T04:21:04.206Z,15.00
2018-08-13T04:23:32.536Z,15.00
2018-08-13T04:26:00.836Z,15.00
2018-08-13T04:28:29.167Z,15.00
2018-08-13T04:30:57.478Z,15.00
2018-08-13T04:33:25.987Z,15.00
2018-08-13T04:35:54.320Z,15.00
2018-08-13T04:38:22.695Z,15.00
2018-08-13T04:40:51.019Z,15.00
2018-08-13T04:43:19.352Z,15.00
2018-08-13T04:45:47.659Z,15.00
2018-08-13T04:48:15.988Z,15.00
2018-08-13T04:50:44.285Z,15.00
2018-08-13T04:53:12.621Z,15.00
2018-08-13T04:55:40.961Z,15.00
2018-08-13T04:58:09.304Z,15.00
2018-08-13T05:00:37.646Z,15.10
2018-08-13T05:03:05.973Z,15.10
2018-08-13T05:05:34.268Z,15.10
2018-08-13T05:08:02.600Z,15.20
2018-08-13T05:10:30.906Z,15.20
2018-08-13T05:12:59.223Z,15.20
2018-08-13T05:15:27.533Z,15.20
2018-08-13T05:17:55.875Z,15.30
2018-08-13T05:20:24.203Z,15.30
2018-08-13T05:22:52.543Z,15.30
2018-08-13T05:25:20.868Z,15.30
2018-08-13T05:27:49.196Z,15.40
2018-08-13T05:30:17.564Z,15.40
2018-08-13T05:32:45.869Z,15.50
2018-08-13T05:35:14.193Z,15.60
2018-08-13T05:37:42.540Z,15.60
2018-08-13T05:40:11.107Z,15.70
2018-08-13T05:42:40.025Z,15.80
2018-08-13T05:45:09.259Z,15.80
2018-08-13T05:47:37.608Z,15.80
2018-08-13T05:50:07.708Z,15.90
2018-08-13T05:52:36.059Z,15.90
2018-08-13T05:55:04.791Z,16.00
2018-08-13T05:57:33.129Z,16.00
2018-08-13T06:00:01.446Z,16.10
2018-08-13T06:02:29.815Z,16.10
2018-08-13T06:04:58.137Z,16.20
2018-08-13T06:07:26.472Z,16.30
2018-08-13T06:09:54.872Z,16.30
2018-08-13T06:12:23.440Z,16.30
2018-08-13T06:14:51.745Z,16.40
2018-08-13T06:17:20.091Z,16.40
2018-08-13T06:19:48.458Z,16.50
2018-08-13T06:22:16.790Z,16.60
2018-08-13T06:24:45.140Z,16.70
2018-08-13T06:27:13.446Z,16.80
2018-08-13T06:29:41.785Z,16.80
2018-08-13T06:32:10.096Z,16.90
2018-08-13T06:34:38.416Z,17.00
2018-08-13T06:37:06.780Z,17.00
2018-08-13T06:39:35.123Z,17.10
2018-08-13T06:42:03.440Z,17.10
2018-08-13T06:44:31.764Z,17.20
2018-08-13T06:47:00.101Z,17.30
2018-08-13T06:49:28.443Z,17.30
2018-08-13T06:51:56.785Z,17.40
2018-08-13T06:54:25.185Z,17.50
2018-08-13T06:56:53.541Z,17.50
2018-08-13T06:59:21.927Z,17.60
2018-08-13T07:01:50.216Z,17.70
2018-08-13T07:04:18.545Z,17.80
2018-08-13T07:06:47.023Z,17.90
2018-08-13T07:09:15.370Z,18.00
2018-08-13T07:11:43.676Z,18.10
2018-08-13T07:14:12.033Z,18.20
2018-08-13T07:16:40.375Z,18.30
2018-08-13T07:19:09.520Z,18.40
2018-08-13T07:21:39.085Z,18.60
2018-08-13T07:24:07.453Z,18.70
2018-08-13T07:26:35.753Z,18.90
2018-08-13T07:29:04.095Z,19.00
2018-08-13T07:31:32.436Z,19.10
2018-08-13T07:34:00.772Z,19.30
2018-08-13T07:36:29.081Z,19.50
2018-08-13T07:38:57.421Z,19.60
2018-08-13T07:41:25.848Z,19.80
2018-08-13T07:43:54.196Z,19.90
2018-08-13T07:46:22.534Z,20.10
2018-08-13T07:48:51.555Z,20.20
2018-08-13T07:51:19.884Z,20.30
2018-08-13T07:53:48.207Z,20.50
2018-08-13T07:56:16.520Z,20.60
2018-08-13T07:58:44.837Z,20.70
2018-08-13T08:01:13.143Z,20.90
2018-08-13T08:03:41.457Z,21.00
2018-08-13T08:06:09.820Z,21.10
2018-08-13T08:08:38.149Z,21.20
2018-08-13T08:11:06.476Z,21.40
2018-08-13T08:13:34.816Z,21.50
2018-08-13T08:16:03.141Z,21.60
2018-08-13T08:18:31.488Z,21.80
2018-08-13T08:20:59.802Z,22.00
2018-08-13T08:23:28.152Z,22.10
2018-08-13T08:25:56.476Z,22.30
2018-08-13T08:28:24.844Z,22.50
2018-08-13T08:30:53.171Z,22.60
2018-08-13T08:33:21.495Z,22.70
2018-08-13T08:35:49.824Z,22.80
2018-08-13T08:38:18.164Z,22.90
2018-08-13T08:40:46.512Z,23.00
2018-08-13T08:43:14.844Z,23.10
2018-08-13T08:45:43.156Z,23.30
2018-08-13T08:48:11.494Z,23.40
2018-08-13T08:50:39.840Z,23.60
2018-08-13T08:53:08.156Z,23.70
2018-08-13T08:55:36.533Z,23.90
2018-08-13T08:58:04.885Z,24.10
2018-08-13T09:00:33.197Z,24.30
2018-08-13T09:03:01.550Z,24.50
2018-08-13T09:05:29.881Z,24.70
2018-08-13T09:07:58.205Z,24.90
2018-08-13T09:10:26.550Z,25.10
2018-08-13T09:12:54.889Z,25.20
2018-08-13T09:15:23.233Z,25.30
2018-08-13T09:18:02.968Z,25.30
2018-08-13T09:20:42.603Z,25.40
2018-08-13T09:23:22.234Z,25.40
2018-08-13T09:26:01.831Z,25.40
2018-08-13T09:28:41.450Z,25.50
2018-08-13T09:31:23.830Z,25.60
2018-08-13T09:34:03.621Z,25.70
2018-08-13T09:36:31.940Z,25.80
2018-08-13T09:39:00.269Z,25.90
2018-08-13T09:41:28.597Z,26.10
2018-08-13T09:43:56.925Z,26.20
2018-08-13T09:46:25.280Z,26.40
2018-08-13T09:48:53.642Z,26.50
2018-08-13T09:51:22.019Z,26.60
2018-08-13T09:53:50.410Z,26.80
2018-08-13T09:56:18.716Z,26.90
2018-08-13T09:58:47.016Z,27.00
2018-08-13T10:01:15.337Z,27.20
2018-08-13T10:03:43.636Z,27.40
2018-08-13T10:06:11.968Z,27.60
2018-08-13T10:08:40.317Z,27.70
2018-08-13T10:11:08.663Z,27.80
2018-08-13T10:13:36.965Z,28.00
2018-08-13T10:16:05.307Z,28.10
2018-08-13T10:18:33.630Z,28.20
2018-08-13T10:21:01.964Z,28.20
2018-08-13T10:23:30.269Z,28.30
2018-08-13T10:25:58.599Z,28.30
2018-08-13T10:28:26.926Z,28.30
2018-08-13T10:30:55.304Z,28.40
2018-08-13T10:33:23.675Z,28.40
2018-08-13T10:35:52.047Z,28.60
2018-08-13T10:38:20.359Z,28.60
2018-08-13T10:40:48.705Z,28.70
2018-08-13T10:43:17.025Z,28.80
2018-08-13T10:45:45.378Z,28.80
2018-08-13T10:48:13.706Z,28.90
2018-08-13T10:50:42.031Z,28.90
2018-08-13T10:53:10.349Z,28.90
2018-08-13T10:55:38.716Z,28.90
2018-08-13T10:58:07.222Z,28.80
2018-08-13T11:00:35.557Z,28.80
2018-08-13T11:03:03.877Z,28.90
2018-08-13T11:05:32.234Z,28.90
2018-08-13T11:08:00.600Z,28.90
2018-08-13T11:10:29.175Z,29.00
2018-08-13T11:12:57.508Z,29.10
2018-08-13T11:15:25.864Z,29.20
2018-08-13T11:17:54.222Z,29.30
2018-08-13T11:20:22.601Z,29.40
2018-08-13T11:22:50.900Z,29.50
2018-08-13T11:25:19.270Z,29.60
2018-08-13T11:27:47.585Z,29.60
2018-08-13T11:30:16.820Z,29.60
2018-08-13T11:32:45.319Z,29.50
2018-08-13T11:35:14.453Z,29.40
2018-08-13T11:37:42.763Z,29.40
2018-08-13T11:40:14.045Z,29.30
2018-08-13T11:42:42.416Z,29.30
2018-08-13T11:45:10.914Z,29.30
2018-08-13T11:47:39.754Z,29.20
2018-08-13T11:50:13.696Z,29.20
2018-08-13T11:52:42.744Z,29.20
2018-08-13T11:55:11.074Z,29.20
2018-08-13T11:57:39.448Z,29.10
2018-08-13T12:00:09.641Z,29.10
2018-08-13T12:02:38.118Z,29.00
2018-08-13T12:05:08.456Z,28.90
2018-08-13T12:07:36.804Z,28.70
2018-08-13T12:10:06.166Z,28.60
2018-08-13T12:12:34.493Z,28.50
2018-08-13T12:15:03.149Z,28.30
2018-08-13T12:17:31.644Z,28.30
2018-08-13T12:20:00.228Z,28.20
2018-08-13T12:22:28.584Z,28.00
2018-08-13T12:24:56.910Z,27.90
2018-08-13T12:27:25.281Z,27.80
2018-08-13T12:29:53.659Z,27.80
2018-08-13T12:32:22.399Z,27.60
2018-08-13T12:34:50.713Z,27.60
2018-08-13T12:37:25.641Z,27.50
2018-08-13T12:39:53.994Z,27.30
2018-08-13T12:42:22.371Z,27.20
2018-08-13T12:44:50.663Z,27.00
2018-08-13T12:47:19.008Z,27.00
2018-08-13T12:49:47.372Z,26.90
2018-08-13T12:52:15.753Z,26.70
2018-08-13T12:54:44.067Z,26.60
2018-08-13T12:57:12.441Z,26.50
2018-08-13T12:59:40.761Z,26.30
2018-08-13T13:02:09.191Z,26.30
2018-08-13T13:04:37.532Z,26.10
2018-08-13T13:07:05.885Z,26.00
2018-08-13T13:09:34.182Z,25.90
2018-08-13T13:12:02.513Z,25.80
2018-08-13T13:14:30.820Z,25.70
2018-08-13T13:16:59.156Z,25.60
2018-08-13T13:19:27.477Z,25.50
2018-08-13T13:21:55.825Z,25.40
2018-08-13T13:24:24.183Z,25.20
2018-08-13T13:26:52.588Z,25.20
2018-08-13T13:29:20.942Z,25.00
2018-08-13T13:31:49.375Z,24.90
2018-08-13T13:34:17.699Z,24.80
2018-08-13T13:36:46.036Z,24.70
2018-08-13T13:39:14.344Z,24.50
2018-08-13T13:41:42.721Z,24.50
2018-08-13T13:44:11.052Z,24.40
2018-08-13T13:46:39.395Z,24.30
2018-08-13T13:49:07.727Z,24.20
2018-08-13T13:51:36.083Z,24.10
2018-08-13T13:54:04.413Z,24.00
2018-08-13T13:56:32.781Z,23.90
2018-08-13T13:59:01.112Z,23.90
2018-08-13T14:01:29.474Z,23.80
2018-08-13T14:03:57.806Z,23.80
2018-08-13T14:06:26.197Z,23.70
2018-08-13T14:08:54.602Z,23.60
2018-08-13T14:11:22.972Z,23.60
2018-08-13T14:13:51.373Z,23.60
2018-08-13T14:16:19.751Z,23.50
2018-08-13T14:18:48.099Z,23.50
2018-08-13T14:21:16.440Z,23.50
2018-08-13T14:23:44.755Z,23.50
2018-08-13T14:26:13.091Z,23.40
2018-08-13T14:28:41.434Z,23.40
2018-08-13T14:31:09.773Z,23.40
2018-08-13T14:33:38.106Z,23.40
2018-08-13T14:36:06.543Z,23.30
2018-08-13T14:38:34.971Z,23.20
2018-08-13T14:41:03.313Z,23.20
2018-08-13T14:43:31.665Z,23.20
2018-08-13T14:46:00.008Z,23.10
2018-08-13T14:48:28.369Z,23.10
2018-08-13T14:50:56.807Z,23.10
2018-08-13T14:53:25.193Z,23.10
2018-08-13T14:55:54.059Z,23.10
2018-08-13T14:58:22.460Z,23.10
2018-08-13T15:00:50.773Z,23.10
2018-08-13T15:03:19.112Z,23.10
2018-08-13T15:05:47.425Z,23.10
2018-08-13T15:08:15.811Z,23.10
2018-08-13T15:10:44.160Z,23.10
2018-08-13T15:13:12.537Z,23.10
2018-08-13T15:15:40.888Z,23.10
2018-08-13T15:18:09.227Z,23.20
2018-08-13T15:20:37.622Z,23.20
2018-08-13T15:23:05.995Z,23.20
2018-08-13T15:25:34.337Z,23.30
2018-08-13T15:28:03.775Z,23.30
2018-08-13T15:30:32.022Z,23.40
2018-08-13T15:33:00.837Z,23.40
2018-08-13T15:35:29.552Z,23.50
2018-08-13T15:37:58.058Z,23.50
2018-08-13T15:40:26.529Z,23.50
2018-08-13T15:42:54.959Z,23.50
2018-08-13T15:45:24.288Z,23.50
2018-08-13T15:47:52.826Z,23.50
2018-08-13T15:50:22.334Z,23.50
2018-08-13T15:52:50.958Z,23.50
2018-08-13T15:55:19.389Z,23.50
2018-08-13T15:57:47.842Z,23.50
2018-08-13T16:00:18.396Z,23.50
2018-08-13T16:02:47.012Z,23.50
2018-08-13T16:05:15.393Z,23.50
2018-08-13T16:07:43.848Z,23.50
2018-08-13T16:10:13.813Z,23.50
2018-08-13T16:12:42.584Z,23.50
2018-08-13T16:15:11.000Z,23.50
2018-08-13T16:17:39.960Z,23.60
2018-08-13T16:20:12.288Z,23.60
2018-08-13T16:22:40.645Z,23.60
2018-08-13T16:25:09.101Z,23.60
2018-08-13T16:27:37.880Z,23.60
2018-08-13T16:30:42.546Z,23.60
2018-08-13T16:33:10.971Z,23.70
2018-08-13T16:35:39.289Z,23.70
2018-08-13T16:38:07.649Z,23.70
2018-08-13T16:40:35.969Z,23.80
2018-08-13T16:43:04.372Z,23.90
2018-08-13T16:45:32.699Z,23.90
2018-08-13T16:48:01.028Z,23.90
2018-08-13T16:50:31.292Z,24.00
2018-08-13T16:52:59.942Z,24.00
2018-08-13T16:55:29.480Z,24.00
2018-08-13T16:57:58.228Z,24.00
2018-08-13T17:00:27.927Z,24.00
2018-08-13T17:02:56.551Z,24.00
2018-08-13T17:05:25.015Z,24.00
2018-08-13T17:07:53.460Z,24.00
2018-08-13T17:10:23.401Z,24.00
2018-08-13T17:12:52.420Z,24.00
2018-08-13T17:15:21.012Z,24.00
2018-08-13T17:17:50.890Z,23.90
2018-08-13T17:20:36.057Z,24.00
2018-08-13T17:23:04.483Z,23.90
2018-08-13T17:25:34.881Z,24.00
2018-08-13T17:28:03.283Z,23.90
2018-08-13T17:30:31.616Z,24.00
2018-08-13T17:33:00.976Z,24.00
2018-08-13T17:35:32.633Z,24.00
2018-08-13T17:38:01.659Z,24.00
2018-08-13T17:40:30.390Z,24.00
2018-08-13T17:42:58.941Z,24.00
2018-08-13T17:45:27.173Z,24.00
2018-08-13T17:47:57.465Z,24.00
2018-08-13T17:50:25.836Z,23.90
2018-08-13T17:52:54.269Z,23.90
2018-08-13T17:55:22.603Z,23.90
2018-08-13T17:57:50.928Z,23.80
2018-08-13T18:00:20.584Z,23.80
2018-08-13T18:02:48.962Z,23.70
2018-08-13T18:05:19.433Z,23.70
2018-08-13T18:07:48.003Z,23.70
2018-08-13T18:10:27.880Z,23.60
2018-08-13T18:12:57.116Z,23.60
2018-08-13T18:15:25.557Z,23.60
2018-08-13T18:17:53.971Z,23.50
2018-08-13T18:20:22.349Z,23.50
2018-08-13T18:22:50.675Z,23.50
2018-08-13T18:25:19.017Z,23.40
2018-08-13T18:27:48.672Z,23.40
2018-08-13T18:30:18.940Z,23.40
2018-08-13T18:32:47.321Z,23.30
2018-08-13T18:35:15.833Z,23.30
2018-08-13T18:37:44.131Z,23.30
2018-08-13T18:40:14.890Z,23.20
2018-08-13T18:42:43.203Z,23.20
2018-08-13T18:45:11.622Z,23.20
2018-08-13T18:47:39.954Z,23.10
2018-08-13T18:50:12.229Z,23.10
2018-08-13T18:52:40.938Z,23.10
2018-08-13T18:55:10.061Z,23.00
2018-08-13T18:57:38.429Z,22.90
2018-08-13T19:00:10.599Z,22.90
2018-08-13T19:02:39.037Z,22.80
2018-08-13T19:05:08.296Z,22.80
2018-08-13T19:07:36.641Z,22.70
2018-08-13T19:10:07.136Z,22.70
2018-08-13T19:12:35.451Z,22.70
2018-08-13T19:15:03.882Z,22.60
2018-08-13T19:17:32.199Z,22.60
2018-08-13T19:20:00.521Z,22.50
2018-08-13T19:22:28.853Z,22.50
2018-08-13T19:24:57.249Z,22.50
2018-08-13T19:27:25.593Z,22.50
2018-08-13T19:29:53.961Z,22.50
2018-08-13T19:32:22.288Z,22.40
2018-08-13T19:34:50.612Z,22.40
2018-08-13T19:37:18.912Z,22.40
2018-08-13T19:39:47.251Z,22.40
2018-08-13T19:42:15.624Z,22.30
2018-08-13T19:44:43.966Z,22.30
2018-08-13T19:47:12.276Z,22.30
2018-08-13T19:49:40.607Z,22.20
2018-08-13T19:52:08.934Z,22.20
2018-08-13T19:54:37.441Z,22.10
2018-08-13T19:57:05.917Z,22.10
2018-08-13T19:59:34.273Z,22.10
2018-08-13T20:02:02.605Z,22.10
2018-08-13T20:04:30.927Z,22.10
2018-08-13T20:06:59.233Z,22.10
2018-08-13T20:09:27.621Z,22.00
2018-08-13T20:11:56.039Z,22.00
2018-08-13T20:14:25.685Z,22.00
2018-08-13T20:16:54.865Z,22.00
2018-08-13T20:19:23.220Z,21.90
2018-08-13T20:21:52.683Z,21.90
2018-08-13T20:24:21.049Z,21.90
2018-08-13T20:26:49.647Z,21.90
2018-08-13T20:29:18.012Z,21.80
2018-08-13T20:31:46.358Z,21.80
2018-08-13T20:34:14.718Z,21.70
2018-08-13T20:36:43.044Z,21.70
2018-08-13T20:39:13.991Z,21.60
2018-08-13T20:41:42.409Z,21.60
2018-08-13T20:44:11.745Z,21.50
2018-08-13T20:46:40.238Z,21.50
2018-08-13T20:49:09.691Z,21.40
2018-08-13T20:51:38.035Z,21.40
2018-08-13T20:54:07.041Z,21.30
2018-08-13T20:56:35.688Z,21.30
2018-08-13T20:59:04.132Z,21.20
2018-08-13T21:01:32.908Z,21.20
2018-08-13T21:04:01.257Z,21.20
2018-08-13T21:06:29.614Z,21.10
2018-08-13T21:08:57.999Z,21.10
2018-08-13T21:11:26.433Z,21.00
2018-08-13T21:13:54.792Z,21.00
2018-08-13T21:16:23.144Z,20.90
2018-08-13T21:18:51.473Z,20.90
2018-08-13T21:21:19.814Z,20.90
2018-08-13T21:23:48.108Z,20.90
2018-08-13T21:26:16.471Z,20.80
2018-08-13T21:28:44.773Z,20.80
2018-08-13T21:31:13.142Z,20.80
2018-08-13T21:33:41.476Z,20.70
2018-08-13T21:36:09.825Z,20.70
2018-08-13T21:38:38.163Z,20.70
2018-08-13T21:41:06.490Z,20.70
2018-08-13T21:43:34.806Z,20.60
2018-08-13T21:46:03.167Z,20.60
2018-08-13T21:48:31.513Z,20.60
2018-08-13T21:50:59.891Z,20.60
2018-08-13T21:53:28.219Z,20.50
2018-08-13T21:55:56.572Z,20.50
2018-08-13T21:58:25.037Z,20.40
2018-08-13T22:00:58.793Z,20.40
2018-08-13T22:03:27.120Z,20.40
2018-08-13T22:05:55.485Z,20.30
2018-08-13T22:08:23.860Z,20.30
2018-08-13T22:10:52.205Z,20.20
2018-08-13T22:13:20.516Z,20.20
2018-08-13T22:15:48.860Z,20.10
2018-08-13T22:18:17.183Z,20.10
2018-08-13T22:20:45.537Z,20.00
2018-08-13T22:23:13.868Z,20.00
2018-08-13T22:25:46.844Z,19.90
2018-08-13T22:28:17.457Z,19.90
2018-08-13T22:30:45.954Z,19.90
2018-08-13T22:33:14.353Z,19.90
2018-08-13T22:35:42.702Z,19.80
2018-08-13T22:38:11.148Z,19.80
2018-08-13T22:40:39.985Z,19.70
2018-08-13T22:43:08.391Z,19.80
2018-08-13T22:45:36.677Z,19.70
2018-08-13T22:48:05.321Z,19.70
2018-08-13T22:50:33.656Z,19.60
2018-08-13T22:53:01.992Z,19.60
2018-08-13T22:55:30.337Z,19.60
2018-08-13T22:57:58.683Z,19.60
2018-08-13T23:00:27.044Z,19.50
2018-08-13T23:02:55.389Z,19.50
2018-08-13T23:05:25.228Z,19.50
2018-08-13T23:07:53.572Z,19.50
2018-08-13T23:10:23.143Z,19.50
2018-08-13T23:12:52.654Z,19.40
2018-08-13T23:15:21.054Z,19.40
2018-08-13T23:17:49.494Z,19.40
2018-08-13T23:20:21.834Z,19.40
2018-08-13T23:22:55.524Z,19.40
2018-08-13T23:25:23.970Z,19.40
2018-08-13T23:27:53.867Z,19.40
2018-08-13T23:30:22.243Z,19.40
2018-08-13T23:32:51.787Z,19.40
2018-08-13T23:35:20.995Z,19.40
2018-08-13T23:37:49.717Z,19.40
2018-08-13T23:40:18.075Z,19.40
2018-08-13T23:42:46.462Z,19.40
2018-08-13T23:45:16.968Z,19.40
2018-08-13T23:47:45.366Z,19.40
2018-08-13T23:50:17.328Z,19.40
2018-08-13T23:52:45.747Z,19.40
2018-08-13T23:55:16.831Z,19.40
2018-08-13T23:57:45.232Z,19.40
